Tuesday, January 15, 2019, 5:26 PM CST
Back to Local

KMDW, Chicago Midway Airport

Location: Chicago, IL, United States Lat: 41.783
Local Time: 5:26 PM CST (23:26 GMT) Lon: -87.75
Time Zone: US/Central Elev: 620 ft

Show me the last for .
Show Coded

Time T Td Feel RH Dir Speed Gust Alt SLP Vis Weather Sky Remarks
2019-01-15 16:53 28 25 13 88 250° 17 28 30.07 30.11 7 OVC008 None
2019-01-15 16:20 28 25 13 88 230° 17 28 30.08 - 7 OVC009 None
2019-01-15 15:53 28 24 12 84 250° 16 31 30.09 30.13 9 OVC011 Peak wind: 31 mph (27 kts) from 250° at 53 min
2019-01-15 14:53 28 24 14 84 240° 16 24 30.09 30.13 10 OVC011 None
2019-01-15 13:53 28 23 15 81 240° 18 - 30.11 30.15 10 OVC011 None
2019-01-15 12:53 28 23 14 81 250° 14 23 30.13 30.17 8 OVC012 None
2019-01-15 11:53 27 22 12 80 250° 15 24 30.16 30.20 10 OVC014 Snow depth: 3"
6-hr Min Temp (12pm): 26.1°F
6-hr Max Temp (12pm): 28.0°F
2019-01-15 10:53 27 22 16 80 230° 13 - 30.20 30.24 10 OVC014 None
2019-01-15 10:12 27 22 17 80 220° 12 - 30.22 - 8 OVC014 None
2019-01-15 09:53 27 22 17 80 230° 12 - 30.22 30.26 8 OVC015 None
2019-01-15 08:53 27 22 17 80 240° 10 - 30.21 30.25 6 BR FEW010 OVC018 None
2019-01-15 07:53 26 22 16 84 240° 10 - 30.20 30.24 6 BR FEW010 OVC018 None
2019-01-15 07:16 26 22 16 84 250° 10 - 30.20 - 5 BR SCT010 OVC020 None
2019-01-15 06:53 26 22 17 84 250° 9 - 30.21 30.25 5 BR BKN010 OVC021 None
2019-01-15 05:53 26 22 16 84 250° 12 - 30.22 30.26 5 BR BKN010 OVC021 6-hr Precip Total (6am): 0.00"
Snow depth: 3"
6-hr Min Temp (6am): 25.0°F
6-hr Max Temp (6am): 26.1°F
2019-01-15 05:27 26 22 17 84 250° 9 - 30.22 - 5 BR BKN010 OVC020 None
2019-01-15 04:53 26 22 16 84 270° 12 - 30.22 30.26 5 BR BKN009 OVC013 None
2019-01-15 03:53 26 22 16 84 270° 10 - 30.23 30.27 5 BR OVC008 1-hr Precip Total: Trace
2019-01-15 03:36 26 23 16 87 260° 10 - 30.23 - 5 BR OVC008 1-hr Precip Total: Trace
2019-01-15 02:53 26 22 16 84 270° 10 - 30.24 30.28 4 -FZDZ BR BKN009 OVC014 1-hr Precip Total: Trace
6-hr Precip Total (3am): 0.00"
2019-01-15 02:09 26 22 16 84 270° 10 - 30.24 - 4 -FZDZ BR OVC009 1-hr Precip Total: Trace
2019-01-15 01:53 26 22 16 84 260° 12 - 30.24 30.28 4 -FZDZ BR OVC010 1-hr Precip Total: Trace
2019-01-15 01:14 26 22 19 84 250° 6 - 30.22 - 5 BR SCT008 OVC015 1-hr Precip Total: Trace
2019-01-15 00:53 26 23 18 87 270° 7 - 30.22 30.27 4 -FZDZ BR OVC008 1-hr Precip Total: Trace
2019-01-14 23:53 25 22 14 87 280° 13 - 30.25 30.29 3 -FZDZ BR OVC009 1-hr Precip Total: Trace
6-hr Precip Total (12am): 0.00"
Snow depth: 3"
6-hr Min Temp (12am): 24.1°F
6-hr Max Temp (12am): 26.1°F
24-hr Min Temp (12am): 21.0°F
24-hr Max Temp (12am): 28.0°F
2019-01-14 23:09 25 21 15 84 280° 10 - 30.27 - 4 -SN BR OVC010 1-hr Precip Total: Trace
2019-01-14 22:53 25 21 14 84 260° 12 - 30.26 30.31 4 BR OVC009 None
2019-01-14 21:53 24 21 13 87 260° 12 - 30.27 30.31 5 BR OVC009 None
2019-01-14 21:18 24 20 11 83 260° 15 - 30.28 - 5 BR OVC009 None
2019-01-14 20:53 24 20 9 83 250° 13 21 30.27 30.32 5 BR OVC010 None
2019-01-14 19:53 25 20 13 80 250° 14 - 30.27 30.32 6 HZ OVC011 None
2019-01-14 18:53 26 21 16 80 230° 12 - 30.29 30.33 8 OVC014 None
2019-01-14 17:53 26 20 14 77 240° 14 - 30.29 30.33 7 OVC014 Snow depth: 3"
6-hr Min Temp (6pm): 26.1°F
6-hr Max Temp (6pm): 28.0°F

Support USWX by starting your Amazon purchase here.